createdAt,value
2023-01-08T00:01:20.846Z,8.90
2023-01-08T00:03:49.804Z,9.33
2023-01-08T00:06:21.272Z,9.20
2023-01-08T00:08:51.307Z,9.10
2023-01-08T00:11:20.048Z,10.43
2023-01-08T00:13:48.657Z,9.43
2023-01-08T00:16:18.987Z,8.70
2023-01-08T00:18:48.166Z,8.80
2023-01-08T00:21:16.799Z,10.50
2023-01-08T00:23:45.446Z,9.77
2023-01-08T00:26:15.785Z,10.03
2023-01-08T00:28:44.549Z,9.40
2023-01-08T00:31:13.950Z,8.70
2023-01-08T00:33:42.926Z,9.60
2023-01-08T00:36:14.645Z,8.97
2023-01-08T00:38:43.808Z,9.40
2023-01-08T00:41:13.308Z,9.17
2023-01-08T00:43:43.293Z,9.07
2023-01-08T00:46:11.983Z,9.70
2023-01-08T00:48:40.640Z,8.00
2023-01-08T00:51:10.357Z,8.73
2023-01-08T00:53:38.976Z,8.20
2023-01-08T00:56:09.099Z,10.00
2023-01-08T00:58:37.723Z,9.30
2023-01-08T01:01:12.189Z,10.47
2023-01-08T01:03:40.979Z,9.60
2023-01-08T01:06:10.245Z,8.80
2023-01-08T01:08:38.864Z,9.30
2023-01-08T01:11:08.510Z,9.27
2023-01-08T01:13:37.264Z,8.50
2023-01-08T01:16:06.570Z,8.80
2023-01-08T01:18:36.588Z,8.87
2023-01-08T01:21:11.456Z,8.43
2023-01-08T01:23:40.315Z,8.70
2023-01-08T01:26:16.000Z,8.53
2023-01-08T01:28:44.763Z,8.90
2023-01-08T01:31:14.252Z,8.43
2023-01-08T01:33:44.306Z,7.57
2023-01-08T01:36:14.692Z,8.10
2023-01-08T01:38:44.412Z,8.07
2023-01-08T01:41:20.775Z,8.30
2023-01-08T01:43:49.355Z,7.90
2023-01-08T01:46:23.157Z,8.70
2023-01-08T01:48:57.924Z,8.50
2023-01-08T01:51:31.282Z,8.07
2023-01-08T01:54:00.301Z,8.30
2023-01-08T01:56:29.792Z,7.00
2023-01-08T01:58:58.630Z,8.23
2023-01-08T02:01:27.607Z,8.37
2023-01-08T02:03:57.830Z,8.10
2023-01-08T02:06:35.772Z,8.27
2023-01-08T02:09:08.994Z,7.83
2023-01-08T02:11:46.469Z,8.10
2023-01-08T02:14:19.066Z,7.00
2023-01-08T02:16:52.255Z,8.03
2023-01-08T02:19:37.814Z,8.20
2023-01-08T02:22:15.350Z,7.37
2023-01-08T02:24:50.786Z,9.10
2023-01-08T02:27:22.381Z,7.60
2023-01-08T02:29:51.688Z,8.43
2023-01-08T02:32:20.398Z,8.70
2023-01-08T02:34:48.990Z,7.97
2023-01-08T02:37:17.655Z,7.87
2023-01-08T02:39:58.563Z,8.50
2023-01-08T02:42:36.285Z,8.17
2023-01-08T02:45:11.278Z,8.23
2023-01-08T02:47:42.909Z,7.40
2023-01-08T02:50:16.757Z,8.10
2023-01-08T02:52:51.246Z,8.17
2023-01-08T02:55:20.756Z,8.40
2023-01-08T02:57:51.588Z,7.67
2023-01-08T03:00:20.841Z,8.00
2023-01-08T03:02:51.237Z,8.30
2023-01-08T03:05:23.962Z,8.77
2023-01-08T03:07:52.767Z,8.17
2023-01-08T03:10:23.687Z,8.53
2023-01-08T03:12:57.110Z,7.50
2023-01-08T03:15:28.723Z,7.50
2023-01-08T03:18:00.318Z,7.90
2023-01-08T03:20:29.519Z,7.07
2023-01-08T03:22:59.437Z,7.53
2023-01-08T03:25:29.314Z,7.60
2023-01-08T03:28:03.141Z,7.00
2023-01-08T03:30:32.677Z,7.50
2023-01-08T03:33:02.433Z,7.97
2023-01-08T03:35:31.462Z,6.97
2023-01-08T03:38:04.838Z,7.40
2023-01-08T03:40:36.763Z,7.70
2023-01-08T03:43:06.787Z,8.10
2023-01-08T03:45:39.547Z,6.80
2023-01-08T03:48:08.917Z,8.00
2023-01-08T03:50:37.617Z,9.20
2023-01-08T03:53:06.229Z,7.53
2023-01-08T03:55:34.821Z,8.53
2023-01-08T03:58:03.431Z,7.83
2023-01-08T04:00:33.536Z,7.23
2023-01-08T04:03:04.403Z,7.43
2023-01-08T04:05:34.408Z,7.73
2023-01-08T04:08:03.067Z,7.63
2023-01-08T04:10:31.684Z,7.10
2023-01-08T04:13:00.284Z,7.70
2023-01-08T04:15:28.985Z,7.27
2023-01-08T04:17:58.983Z,7.50
2023-01-08T04:20:27.628Z,7.70
2023-01-08T04:22:56.263Z,7.73
2023-01-08T04:25:24.825Z,7.60
2023-01-08T04:27:53.468Z,8.10
2023-01-08T04:30:22.029Z,7.43
2023-01-08T04:32:50.665Z,7.70
2023-01-08T04:35:20.669Z,7.10
2023-01-08T04:37:49.294Z,7.73
2023-01-08T04:40:17.935Z,6.33
2023-01-08T04:42:46.562Z,7.90
2023-01-08T04:45:15.321Z,7.60
2023-01-08T04:47:43.949Z,7.90
2023-01-08T04:50:12.811Z,7.47
2023-01-08T04:52:42.737Z,7.93
2023-01-08T04:55:11.406Z,7.40
2023-01-08T04:57:40.030Z,7.73
2023-01-08T05:00:09.388Z,7.70
2023-01-08T05:02:38.283Z,7.80
2023-01-08T05:05:08.074Z,7.20
2023-01-08T05:07:36.760Z,7.10
2023-01-08T05:10:08.165Z,8.10
2023-01-08T05:12:36.830Z,8.03
2023-01-08T05:15:06.075Z,7.67
2023-01-08T05:17:34.639Z,7.63
2023-01-08T05:20:03.207Z,7.40
2023-01-08T05:22:31.820Z,8.30
2023-01-08T05:25:00.453Z,7.60
2023-01-08T05:27:30.503Z,7.90
2023-01-08T05:29:59.138Z,8.00
2023-01-08T05:32:27.757Z,8.30
2023-01-08T05:34:56.360Z,8.23
2023-01-08T05:37:24.946Z,7.80
2023-01-08T05:39:53.502Z,8.20
2023-01-08T05:42:22.318Z,8.20
2023-01-08T05:44:52.247Z,7.43
2023-01-08T05:47:20.790Z,7.40
2023-01-08T05:49:49.397Z,7.70
2023-01-08T05:52:18.057Z,8.10
2023-01-08T05:54:46.661Z,7.57
2023-01-08T05:57:15.266Z,7.80
2023-01-08T05:59:43.868Z,7.43
2023-01-08T06:02:13.873Z,7.63
2023-01-08T06:04:42.505Z,7.00
2023-01-08T06:07:11.131Z,7.77
2023-01-08T06:09:39.829Z,7.40
2023-01-08T06:12:08.751Z,7.70
2023-01-08T06:14:37.329Z,7.33
2023-01-08T06:17:06.000Z,7.90
2023-01-08T06:19:35.991Z,8.03
2023-01-08T06:22:04.566Z,7.53
2023-01-08T06:24:33.302Z,7.40
2023-01-08T06:27:01.915Z,6.87
2023-01-08T06:29:30.525Z,7.20
2023-01-08T06:31:59.254Z,8.37
2023-01-08T06:34:27.838Z,7.63
2023-01-08T06:36:57.849Z,6.80
2023-01-08T06:39:26.475Z,7.20
2023-01-08T06:41:55.083Z,7.93
2023-01-08T06:44:24.003Z,7.27
2023-01-08T06:46:52.698Z,7.70
2023-01-08T06:49:22.160Z,7.53
2023-01-08T06:51:50.868Z,7.40
2023-01-08T06:54:21.070Z,7.20
2023-01-08T06:56:54.069Z,7.17
2023-01-08T06:59:23.059Z,7.03
2023-01-08T07:01:51.833Z,5.90
2023-01-08T07:04:20.950Z,6.07
2023-01-08T07:06:49.737Z,6.00
2023-01-08T07:09:18.389Z,5.30
2023-01-08T07:11:48.366Z,5.60
2023-01-08T07:14:16.959Z,5.20
2023-01-08T07:16:45.568Z,4.83
2023-01-08T07:19:14.230Z,6.97
2023-01-08T07:21:42.849Z,6.87
2023-01-08T07:24:11.679Z,6.57
2023-01-08T07:26:40.429Z,6.77
2023-01-08T07:29:10.356Z,6.10
2023-01-08T07:31:38.969Z,6.40
2023-01-08T07:34:07.729Z,5.90
2023-01-08T07:36:36.322Z,5.97
2023-01-08T07:39:05.185Z,5.50
2023-01-08T07:41:33.759Z,5.97
2023-01-08T07:44:02.507Z,4.77
2023-01-08T07:46:32.507Z,5.40
2023-01-08T07:49:01.211Z,5.90
2023-01-08T07:51:30.406Z,4.93
2023-01-08T07:53:58.990Z,5.20
2023-01-08T07:56:27.604Z,5.60
2023-01-08T07:58:56.544Z,4.73
2023-01-08T08:01:26.213Z,5.40
2023-01-08T08:03:56.273Z,4.73
2023-01-08T08:06:24.829Z,4.40
2023-01-08T08:08:53.438Z,6.07
2023-01-08T08:11:22.055Z,6.20
2023-01-08T08:13:53.047Z,6.50
2023-01-08T08:16:22.573Z,5.10
2023-01-08T08:18:51.223Z,4.03
2023-01-08T08:21:21.178Z,4.70
2023-01-08T08:23:49.718Z,4.00
2023-01-08T08:26:18.418Z,4.67
2023-01-08T08:28:47.060Z,4.80
2023-01-08T08:31:16.032Z,4.73
2023-01-08T08:33:44.732Z,5.10
2023-01-08T08:36:13.391Z,5.43
2023-01-08T08:38:43.314Z,5.83
2023-01-08T08:41:11.966Z,6.03
2023-01-08T08:43:40.560Z,5.67
2023-01-08T08:46:09.126Z,4.90
2023-01-08T08:48:37.715Z,5.17
2023-01-08T08:51:06.619Z,6.17
2023-01-08T08:53:35.205Z,6.73
2023-01-08T08:56:05.589Z,5.50
2023-01-08T08:58:34.194Z,5.77
2023-01-08T09:01:03.641Z,5.83
2023-01-08T09:03:32.385Z,5.70
2023-01-08T09:06:01.103Z,5.43
2023-01-08T09:08:29.728Z,5.53
2023-01-08T09:10:58.312Z,5.13
2023-01-08T09:13:28.253Z,5.50
2023-01-08T09:15:59.236Z,5.60
2023-01-08T09:18:27.968Z,5.70
2023-01-08T09:20:56.543Z,5.77
2023-01-08T09:23:25.093Z,5.40
2023-01-08T09:26:00.384Z,5.50
2023-01-08T09:28:31.005Z,4.77
2023-01-08T09:31:02.444Z,4.77
2023-01-08T09:33:31.447Z,5.37
2023-01-08T09:36:00.222Z,5.97
2023-01-08T09:38:30.237Z,5.67
2023-01-08T09:41:01.438Z,5.43
2023-01-08T09:43:36.387Z,5.20
2023-01-08T09:46:06.472Z,6.07
2023-01-08T09:48:37.578Z,5.10
2023-01-08T09:51:07.639Z,6.20
2023-01-08T09:53:36.269Z,5.90
2023-01-08T09:56:10.604Z,5.70
2023-01-08T09:58:44.365Z,5.60
2023-01-08T10:01:15.957Z,5.27
2023-01-08T10:03:46.383Z,7.73
2023-01-08T10:06:16.544Z,6.60
2023-01-08T10:11:16.428Z,5.97
2023-01-08T10:13:51.933Z,6.37
2023-01-08T10:16:28.620Z,8.00
2023-01-08T10:18:57.533Z,7.20
2023-01-08T10:21:30.799Z,6.40
2023-01-08T10:23:59.703Z,6.10
2023-01-08T10:26:30.772Z,6.80
2023-01-08T10:29:15.794Z,7.10
2023-01-08T10:31:49.954Z,6.47
2023-01-08T10:34:27.525Z,6.07
2023-01-08T10:36:56.833Z,6.07
2023-01-08T10:39:27.671Z,5.53
2023-01-08T10:41:57.959Z,4.90
2023-01-08T10:44:27.922Z,4.90
2023-01-08T10:46:59.634Z,5.90
2023-01-08T10:49:33.170Z,5.50
2023-01-08T10:52:01.918Z,5.83
2023-01-08T10:54:40.914Z,6.37
2023-01-08T10:57:21.790Z,6.80
2023-01-08T10:59:51.800Z,4.93
2023-01-08T11:02:26.810Z,6.37
2023-01-08T11:04:55.474Z,5.30
2023-01-08T11:07:25.029Z,5.17
2023-01-08T11:09:53.842Z,5.17
2023-01-08T11:12:32.406Z,5.23
2023-01-08T11:15:03.044Z,4.63
2023-01-08T11:17:31.664Z,4.13
2023-01-08T11:20:09.233Z,3.93
2023-01-08T11:22:37.839Z,3.90
2023-01-08T11:25:14.091Z,4.17
2023-01-08T11:27:45.827Z,5.03
2023-01-08T11:30:19.069Z,6.47
2023-01-08T11:32:50.414Z,4.83
2023-01-08T11:35:21.757Z,2.07
2023-01-08T11:37:52.218Z,1.70
2023-01-08T11:40:32.656Z,1.10
2023-01-08T11:43:12.803Z,0.70
2023-01-08T11:45:52.856Z,0.90
2023-01-08T11:48:41.982Z,2.70
2023-01-08T11:51:37.752Z,1.00
2023-01-08T11:54:09.817Z,0.70
2023-01-08T11:56:56.533Z,0.80
2023-01-08T11:59:30.631Z,0.97
2023-01-08T12:02:06.250Z,0.77
2023-01-08T12:04:54.844Z,0.80
2023-01-08T12:07:26.376Z,0.70
2023-01-08T12:09:59.414Z,0.90
2023-01-08T12:12:41.128Z,0.77
2023-01-08T12:15:17.573Z,0.80
2023-01-08T12:18:16.590Z,0.87
2023-01-08T12:20:49.876Z,0.80
2023-01-08T12:23:33.023Z,1.00
2023-01-08T12:26:11.074Z,0.90
2023-01-08T12:28:59.898Z,1.03
2023-01-08T12:32:09.467Z,0.73
2023-01-08T12:34:46.459Z,0.60
2023-01-08T12:37:16.847Z,0.70
2023-01-08T12:39:50.909Z,0.73
2023-01-08T12:42:24.555Z,0.80
2023-01-08T12:44:55.077Z,0.70
2023-01-08T12:47:27.222Z,0.63
2023-01-08T12:50:03.976Z,0.60
2023-01-08T12:52:40.203Z,0.60
2023-01-08T12:55:18.730Z,0.80
2023-01-08T12:57:51.422Z,0.70
2023-01-08T13:00:24.049Z,0.80
2023-01-08T13:02:57.026Z,0.77
2023-01-08T13:05:35.701Z,1.00
2023-01-08T13:08:06.047Z,0.93
2023-01-08T13:10:38.793Z,1.00
2023-01-08T13:13:08.534Z,1.10
2023-01-08T13:15:37.268Z,1.03
2023-01-08T13:18:09.539Z,0.90
2023-01-08T13:20:39.761Z,1.03
2023-01-08T13:23:08.725Z,0.97
2023-01-08T13:25:38.721Z,0.97
2023-01-08T13:28:26.831Z,0.83
2023-01-08T13:30:56.611Z,0.90
2023-01-08T13:33:41.278Z,0.90
2023-01-08T13:36:21.296Z,0.80
2023-01-08T13:39:02.148Z,1.00
2023-01-08T13:41:32.066Z,0.93
2023-01-08T13:44:04.277Z,0.77
2023-01-08T13:46:34.382Z,1.07
2023-01-08T13:49:04.530Z,1.20
2023-01-08T13:51:45.249Z,1.23
2023-01-08T13:54:27.887Z,1.00
2023-01-08T13:57:04.146Z,1.03
2023-01-08T13:59:38.936Z,0.80
2023-01-08T14:02:25.117Z,0.90
2023-01-08T14:04:55.207Z,0.97
2023-01-08T14:07:25.696Z,1.00
2023-01-08T14:09:54.817Z,0.97
2023-01-08T14:12:25.047Z,1.27
2023-01-08T14:14:55.372Z,1.07
2023-01-08T14:17:29.924Z,1.10
2023-01-08T14:19:58.673Z,1.10
2023-01-08T14:22:31.849Z,1.33
2023-01-08T14:25:03.226Z,1.40
2023-01-08T14:27:32.991Z,1.20
2023-01-08T14:30:01.647Z,1.70
2023-01-08T14:32:31.567Z,1.20
2023-01-08T14:35:00.649Z,1.20
2023-01-08T14:37:30.664Z,1.30
2023-01-08T14:39:59.316Z,1.93
2023-01-08T14:42:47.156Z,3.13
2023-01-08T14:45:20.538Z,1.97
2023-01-08T14:47:50.686Z,1.80
2023-01-08T14:50:25.624Z,1.57
2023-01-08T14:52:59.292Z,1.20
2023-01-08T14:55:28.769Z,1.00
2023-01-08T14:57:58.039Z,1.10
2023-01-08T15:00:28.542Z,1.47
2023-01-08T15:02:57.642Z,1.20
2023-01-08T15:05:28.859Z,1.20
2023-01-08T15:08:03.901Z,1.30
2023-01-08T15:10:38.171Z,1.57
2023-01-08T15:13:08.475Z,1.30
2023-01-08T15:15:42.864Z,1.40
2023-01-08T15:18:13.166Z,1.47
2023-01-08T15:20:45.403Z,1.53
2023-01-08T15:23:26.509Z,1.30
2023-01-08T15:25:56.067Z,1.50
2023-01-08T15:28:26.613Z,1.80
2023-01-08T15:30:56.879Z,1.70
2023-01-08T15:33:27.306Z,1.80
2023-01-08T15:35:56.396Z,6.80
2023-01-08T15:38:26.455Z,11.00
2023-01-08T15:40:55.401Z,6.23
2023-01-08T15:43:23.797Z,3.17
2023-01-08T15:45:52.602Z,2.93
2023-01-08T15:48:21.279Z,2.43
2023-01-08T15:50:49.946Z,2.30
2023-01-08T15:53:19.848Z,2.17
2023-01-08T15:55:49.880Z,2.47
2023-01-08T15:58:18.663Z,1.83
2023-01-08T16:00:47.753Z,2.13
2023-01-08T16:03:17.194Z,1.90
2023-01-08T16:05:45.830Z,1.93
2023-01-08T16:08:14.590Z,1.70
2023-01-08T16:10:43.294Z,1.80
2023-01-08T16:13:13.747Z,1.83
2023-01-08T16:15:42.360Z,1.90
2023-01-08T16:18:11.151Z,2.13
2023-01-08T16:20:39.909Z,2.10
2023-01-08T16:23:08.682Z,2.10
2023-01-08T16:25:39.675Z,2.23
2023-01-08T16:28:08.362Z,2.37
2023-01-08T16:30:41.339Z,2.03
2023-01-08T16:33:09.992Z,2.80
2023-01-08T16:35:38.579Z,2.40
2023-01-08T16:38:08.448Z,2.70
2023-01-08T16:40:37.545Z,2.10
2023-01-08T16:43:06.218Z,2.60
2023-01-08T16:45:34.894Z,2.50
2023-01-08T16:48:05.496Z,3.30
2023-01-08T16:50:34.235Z,3.20
2023-01-08T16:53:03.117Z,3.90
2023-01-08T16:55:31.801Z,4.37
2023-01-08T16:58:00.454Z,4.30
2023-01-08T17:00:29.142Z,4.50
2023-01-08T17:02:57.787Z,5.33
2023-01-08T17:05:27.854Z,4.50
2023-01-08T17:07:56.977Z,4.30
2023-01-08T17:10:26.805Z,4.60
2023-01-08T17:12:55.440Z,6.50
2023-01-08T17:15:24.423Z,6.50
2023-01-08T17:17:53.132Z,5.40
2023-01-08T17:20:21.834Z,5.93
2023-01-08T17:22:52.047Z,6.10
2023-01-08T17:25:20.708Z,6.27
2023-01-08T17:27:49.371Z,6.23
2023-01-08T17:30:18.342Z,6.83
2023-01-08T17:32:47.016Z,7.23
2023-01-08T17:35:15.753Z,6.57
2023-01-08T17:37:44.357Z,6.90
2023-01-08T17:40:14.815Z,6.87
2023-01-08T17:42:43.604Z,6.70
2023-01-08T17:45:12.564Z,7.23
2023-01-08T17:47:41.584Z,6.50
2023-01-08T17:50:11.962Z,7.03
2023-01-08T17:52:40.605Z,7.53
2023-01-08T17:55:09.831Z,7.13
2023-01-08T17:57:40.416Z,6.83
2023-01-08T18:00:10.586Z,6.70
2023-01-08T18:02:39.385Z,6.67
2023-01-08T18:05:09.267Z,6.63
2023-01-08T18:07:38.127Z,8.70
2023-01-08T18:10:08.049Z,7.30
2023-01-08T18:12:36.644Z,7.60
2023-01-08T18:15:08.466Z,8.07
2023-01-08T18:17:37.126Z,6.83
2023-01-08T18:20:06.552Z,7.87
2023-01-08T18:22:35.211Z,7.90
2023-01-08T18:25:03.860Z,8.07
2023-01-08T18:27:32.584Z,7.23
2023-01-08T18:30:01.205Z,7.30
2023-01-08T18:32:31.323Z,6.50
2023-01-08T18:35:00.026Z,6.53
2023-01-08T18:37:28.637Z,7.60
2023-01-08T18:39:57.355Z,7.80
2023-01-08T18:42:30.317Z,6.73
2023-01-08T18:44:59.237Z,6.83
2023-01-08T18:47:28.752Z,6.67
2023-01-08T18:50:03.048Z,6.30
2023-01-08T18:52:31.815Z,5.87
2023-01-08T18:55:00.421Z,6.00
2023-01-08T18:57:29.730Z,5.67
2023-01-08T18:59:58.440Z,4.93
2023-01-08T19:02:29.165Z,6.97
2023-01-08T19:04:59.219Z,6.27
2023-01-08T19:07:28.218Z,5.90
2023-01-08T19:09:57.292Z,5.97
2023-01-08T19:12:27.200Z,6.20
2023-01-08T19:14:55.972Z,6.17
2023-01-08T19:17:24.570Z,6.43
2023-01-08T19:19:53.209Z,5.97
2023-01-08T19:22:26.567Z,6.70
2023-01-08T19:24:55.426Z,6.63
2023-01-08T19:27:24.372Z,6.40
2023-01-08T19:29:53.092Z,6.07
2023-01-08T19:32:21.821Z,7.30
2023-01-08T19:34:50.652Z,7.57
2023-01-08T19:37:19.327Z,6.47
2023-01-08T19:39:49.355Z,6.95
2023-01-08T19:42:35.552Z,6.50
2023-01-08T19:45:04.581Z,8.23
2023-01-08T19:47:33.314Z,7.43
2023-01-08T19:50:01.954Z,6.00
2023-01-08T19:52:30.706Z,6.00
2023-01-08T19:55:01.557Z,4.97
2023-01-08T19:57:30.346Z,6.13
2023-01-08T19:59:59.022Z,6.10
2023-01-08T20:02:27.819Z,5.43
2023-01-08T20:04:56.503Z,5.43
2023-01-08T20:07:25.136Z,5.80
2023-01-08T20:09:53.838Z,5.77
2023-01-08T20:12:23.900Z,5.90
2023-01-08T20:14:52.512Z,9.40
2023-01-08T20:17:25.079Z,8.20
2023-01-08T20:19:53.944Z,6.20
2023-01-08T20:22:22.869Z,6.37
2023-01-08T20:24:51.834Z,6.27
2023-01-08T20:27:20.472Z,6.10
2023-01-08T20:29:50.745Z,7.10
2023-01-08T20:32:21.576Z,7.10
2023-01-08T20:34:51.919Z,6.80
2023-01-08T20:37:20.592Z,7.83
2023-01-08T20:39:49.233Z,7.57
2023-01-08T20:42:32.914Z,8.90
2023-01-08T20:45:03.902Z,8.03
2023-01-08T20:47:32.560Z,7.23
2023-01-08T20:50:03.336Z,8.90
2023-01-08T20:52:35.701Z,7.70
2023-01-08T20:55:04.769Z,8.93
2023-01-08T20:57:33.426Z,8.60
2023-01-08T21:00:02.041Z,7.77
2023-01-08T21:02:32.075Z,8.00
2023-01-08T21:05:00.666Z,8.37
2023-01-08T21:07:29.888Z,7.47
2023-01-08T21:09:58.455Z,7.33
2023-01-08T21:12:27.149Z,7.20
2023-01-08T21:14:55.850Z,7.30
2023-01-08T21:17:24.474Z,8.43
2023-01-08T21:19:54.522Z,7.60
2023-01-08T21:22:23.152Z,8.60
2023-01-08T21:24:51.772Z,8.77
2023-01-08T21:27:20.413Z,7.83
2023-01-08T21:29:49.040Z,7.90
2023-01-08T21:32:17.675Z,7.97
2023-01-08T21:34:46.413Z,8.90
2023-01-08T21:37:16.478Z,17.70
2023-01-08T21:39:45.174Z,8.40
2023-01-08T21:42:31.801Z,7.97
2023-01-08T21:45:18.031Z,6.90
2023-01-08T21:47:46.684Z,6.77
2023-01-08T21:50:15.335Z,7.10
2023-01-08T21:53:02.926Z,6.57
2023-01-08T21:55:33.518Z,6.30
2023-01-08T21:58:02.264Z,6.40
2023-01-08T22:00:31.365Z,6.10
2023-01-08T22:02:59.986Z,5.63
2023-01-08T22:05:28.791Z,5.80
2023-01-08T22:07:58.831Z,4.87
2023-01-08T22:10:27.568Z,5.50
2023-01-08T22:12:56.202Z,5.27
2023-01-08T22:15:24.795Z,6.00
2023-01-08T22:17:53.583Z,5.60
2023-01-08T22:20:22.562Z,5.53
2023-01-08T22:22:51.346Z,5.47
2023-01-08T22:25:21.479Z,5.30
2023-01-08T22:27:53.999Z,5.60
2023-01-08T22:30:22.977Z,5.87
2023-01-08T22:32:51.608Z,5.40
2023-01-08T22:35:20.253Z,6.17
2023-01-08T22:37:48.938Z,5.87
2023-01-08T22:40:18.059Z,5.70
2023-01-08T22:42:48.102Z,6.10
2023-01-08T22:45:16.921Z,5.70
2023-01-08T22:47:45.510Z,6.70
2023-01-08T22:50:14.289Z,7.00
2023-01-08T22:52:42.879Z,6.87
2023-01-08T22:55:11.708Z,5.97
2023-01-08T22:57:40.421Z,5.53
2023-01-08T23:00:11.800Z,5.00
2023-01-08T23:02:40.541Z,5.33
2023-01-08T23:05:09.493Z,4.70
2023-01-08T23:07:38.161Z,4.40
2023-01-08T23:10:07.607Z,4.20
2023-01-08T23:12:36.253Z,4.50
2023-01-08T23:15:07.321Z,4.37
2023-01-08T23:17:47.945Z,5.10
2023-01-08T23:20:21.393Z,4.50
2023-01-08T23:22:50.027Z,4.27
2023-01-08T23:25:19.150Z,4.30
2023-01-08T23:27:47.757Z,4.20
2023-01-08T23:30:16.520Z,4.87
2023-01-08T23:32:46.608Z,4.20
2023-01-08T23:35:15.206Z,4.40
2023-01-08T23:37:43.848Z,4.47
2023-01-08T23:40:13.439Z,4.17
2023-01-08T23:42:42.097Z,4.70
2023-01-08T23:45:11.749Z,4.43
2023-01-08T23:47:40.379Z,4.50
2023-01-08T23:50:11.868Z,4.00
2023-01-08T23:52:40.492Z,4.60
2023-01-08T23:55:10.078Z,4.27
2023-01-08T23:57:38.736Z,4.67
